Time;durP1;ratioP1;P1;durP2;ratioP2;P2;SDS_P1;SDS_P2;PMS_P1;PMS_P2;Temp;Humidity;BMP_temperature;BMP_pressure;BME280_temperature;BME280_humidity;BME280_pressure;Samples;Min_cycle;Max_cycle;Signal;HPM_P1;HPM_P2
2021/04/29 00:03:46;;;;;;;10.85;7.10;;;11.70;99.90;;;;;;20921955;28;20046;-77
2021/04/29 00:13:46;;;;;;;7.03;2.80;;;11.60;99.90;;;;;;20921126;28;20460;-77
2021/04/29 00:23:47;;;;;;;10.17;3.00;;;11.50;99.90;;;;;;20917447;28;20548;-77
2021/04/29 00:33:49;;;;;;;5.37;2.83;;;11.40;99.90;;;;;;20914905;28;20033;-77
2021/04/29 00:43:51;;;;;;;4.80;2.30;;;11.20;99.90;;;;;;20914288;28;20029;-77
2021/04/29 00:53:53;;;;;;;6.20;2.60;;;11.10;99.90;;;;;;20913371;28;20275;-76
2021/04/29 01:04:05;;;;;;;6.67;2.10;;;10.90;99.90;;;;;;20912778;28;20037;-77
2021/04/29 01:14:06;;;;;;;3.63;1.65;;;10.60;99.90;;;;;;20909391;28;20040;-77
2021/04/29 01:24:21;;;;;;;3.20;1.80;;;10.50;99.90;;;;;;20908846;28;20033;-76
2021/04/29 01:34:27;;;;;;;4.65;2.13;;;10.50;99.90;;;;;;20908505;28;20040;-76
2021/04/29 01:44:28;;;;;;;7.65;2.60;;;10.50;99.90;;;;;;20909135;28;20465;-77
2021/04/29 01:54:29;;;;;;;6.75;2.90;;;10.40;99.90;;;;;;20908415;28;20029;-77
2021/04/29 02:04:30;;;;;;;6.50;2.43;;;10.30;99.90;;;;;;20907820;28;20060;-77
2021/04/29 02:14:47;;;;;;;5.73;2.47;;;10.20;99.90;;;;;;20908031;28;20032;-76
2021/04/29 02:24:49;;;;;;;5.60;3.00;;;10.30;99.90;;;;;;20906389;28;20037;-77
2021/04/29 02:34:50;;;;;;;5.50;3.27;;;10.10;99.90;;;;;;20908040;28;20033;-77
2021/04/29 02:44:50;;;;;;;6.33;2.97;;;10.10;99.90;;;;;;20907197;28;20337;-77
2021/04/29 02:54:51;;;;;;;5.80;3.00;;;9.90;99.90;;;;;;20907692;28;20106;-76
2021/04/29 03:04:52;;;;;;;10.43;3.60;;;9.90;99.90;;;;;;20912361;28;20107;-77
2021/04/29 03:14:53;;;;;;;4.10;3.10;;;9.90;99.90;;;;;;20921531;28;20032;-77
2021/04/29 03:24:54;;;;;;;8.27;4.13;;;9.90;99.90;;;;;;20920451;28;20031;-77
2021/04/29 03:34:55;;;;;;;7.45;4.40;;;9.80;99.90;;;;;;20918748;28;20033;-77
2021/04/29 03:44:56;;;;;;;6.10;3.77;;;9.80;99.90;;;;;;20920840;28;20033;-77
2021/04/29 03:54:57;;;;;;;5.67;3.63;;;9.80;99.90;;;;;;20920894;28;20116;-77
2021/04/29 04:04:58;;;;;;;7.30;4.13;;;9.80;99.90;;;;;;20920073;28;20479;-79
2021/04/29 04:14:59;;;;;;;9.43;4.53;;;9.70;99.90;;;;;;20932381;28;20048;-79
2021/04/29 04:25:00;;;;;;;13.57;4.60;;;9.70;99.90;;;;;;20934935;28;20108;-78
2021/04/29 04:35:01;;;;;;;10.23;5.27;;;9.40;99.90;;;;;;20932163;28;20025;-79
2021/04/29 04:45:03;;;;;;;6.57;4.60;;;9.20;99.90;;;;;;20933243;28;20056;-79
2021/04/29 04:55:05;;;;;;;6.80;4.60;;;9.40;99.90;;;;;;20932952;28;20370;-78
2021/04/29 05:05:07;;;;;;;10.02;4.57;;;9.50;99.90;;;;;;20931573;28;20063;-79
2021/04/29 05:15:08;;;;;;;9.40;5.20;;;9.60;99.90;;;;;;20933397;28;20036;-78
2021/04/29 05:25:09;;;;;;;8.97;5.20;;;9.70;99.90;;;;;;20932373;28;20036;-79
2021/04/29 05:35:10;;;;;;;12.17;4.83;;;10.00;99.90;;;;;;20931837;28;20395;-78
2021/04/29 05:45:12;;;;;;;12.03;4.90;;;10.20;99.90;;;;;;20913150;28;20021;-76
2021/04/29 05:55:13;;;;;;;7.63;5.20;;;10.40;99.90;;;;;;20833259;28;20175;-75
2021/04/29 06:05:13;;;;;;;8.33;4.60;;;10.60;99.90;;;;;;20890004;28;20069;-76
2021/04/29 06:15:15;;;;;;;8.80;4.30;;;11.00;99.90;;;;;;20905513;28;20033;-76
2021/04/29 06:25:17;;;;;;;7.17;4.80;;;11.20;99.90;;;;;;20906481;28;20123;-76
2021/04/29 06:35:18;;;;;;;7.78;5.03;;;11.50;99.90;;;;;;20906764;28;20029;-76
2021/04/29 06:45:19;;;;;;;11.03;5.00;;;11.20;99.90;;;;;;20920591;28;20400;-76
2021/04/29 06:55:20;;;;;;;7.37;4.53;;;11.40;99.90;;;;;;20921583;28;20029;-76
2021/04/29 07:05:21;;;;;;;12.03;4.60;;;11.50;99.90;;;;;;20897886;28;20029;-76
2021/04/29 07:15:22;;;;;;;8.37;4.77;;;11.90;99.90;;;;;;20878600;28;20082;-76
2021/04/29 07:25:26;;;;;;;8.20;4.57;;;12.10;99.90;;;;;;20900309;28;20025;-76
2021/04/29 07:35:27;;;;;;;7.70;5.10;;;11.90;99.90;;;;;;20847408;28;20373;-75
2021/04/29 07:45:29;;;;;;;9.37;5.37;;;12.40;99.90;;;;;;20813299;28;20061;-76
2021/04/29 07:55:31;;;;;;;11.00;5.23;;;12.60;99.90;;;;;;20875582;28;20032;-76
2021/04/29 08:05:32;;;;;;;9.32;5.35;;;12.80;99.90;;;;;;20883776;28;20029;-76
2021/04/29 08:15:33;;;;;;;15.05;5.38;;;13.60;99.90;;;;;;20814182;28;20032;-76
2021/04/29 08:25:33;;;;;;;9.07;4.90;;;13.80;99.90;;;;;;20812226;28;20083;-76
2021/04/29 08:35:34;;;;;;;10.17;5.57;;;13.70;99.90;;;;;;20810288;28;20111;-76
2021/04/29 08:45:36;;;;;;;10.10;5.57;;;14.60;99.90;;;;;;20865018;28;20098;-76
2021/04/29 08:55:37;;;;;;;8.27;5.13;;;14.70;99.90;;;;;;20892323;28;20048;-76
2021/04/29 09:05:38;;;;;;;13.87;5.40;;;15.60;99.90;;;;;;20878454;28;20033;-76
2021/04/29 09:15:40;;;;;;;12.93;5.70;;;16.20;99.90;;;;;;20806929;28;20033;-76
2021/04/29 09:25:57;;;;;;;23.08;9.10;;;15.90;99.90;;;;;;20856798;28;20033;-76
2021/04/29 09:35:58;;;;;;;11.15;5.65;;;15.90;99.90;;;;;;20888328;28;20040;-76
2021/04/29 09:46:03;;;;;;;12.13;4.63;;;15.80;99.90;;;;;;20831351;28;20044;-76
2021/04/29 09:56:13;;;;;;;9.93;5.25;;;16.50;99.90;;;;;;20805389;28;20138;-76
2021/04/29 10:06:15;;;;;;;9.63;5.72;;;15.20;99.90;;;;;;20805126;28;20503;-76
2021/04/29 10:16:16;;;;;;;;;;;14.70;99.90;;;;;;20805280;28;20091;-76
2021/04/29 10:26:32;;;;;;;12.20;5.18;;;14.10;99.90;;;;;;20804579;28;20088;-75
2021/04/29 10:36:41;;;;;;;13.32;5.00;;;13.90;99.90;;;;;;20804387;28;20087;-75
2021/04/29 10:46:43;;;;;;;9.52;5.30;;;14.20;99.90;;;;;;20866835;28;20071;-75
2021/04/29 10:56:58;;;;;;;;;;;14.50;99.90;;;;;;20824538;28;20026;-75
2021/04/29 11:07:10;;;;;;;14.20;5.80;;;14.30;99.90;;;;;;20822187;28;19916;-75
2021/04/29 11:17:27;;;;;;;16.83;5.83;;;14.40;99.90;;;;;;20828399;28;20103;-75
2021/04/29 11:27:30;;;;;;;12.32;5.28;;;14.50;99.90;;;;;;20810279;28;20546;-76
2021/04/29 11:37:43;;;;;;;10.43;5.30;;;14.80;99.90;;;;;;20885743;28;20400;-75
2021/04/29 11:48:03;;;;;;;;;;;15.40;99.90;;;;;;20873549;28;20087;-76
2021/04/29 11:58:08;;;;;;;11.60;6.30;;;15.70;99.90;;;;;;20833683;28;19963;-76
2021/04/29 12:08:28;;;;;;;9.85;5.20;;;15.50;99.90;;;;;;20833978;28;20449;-75
2021/04/29 12:18:30;;;;;;;11.82;5.80;;;13.90;99.90;;;;;;20833237;28;20029;-75
2021/04/29 12:28:36;;;;;;;10.98;5.07;;;13.60;99.90;;;;;;20814542;28;20029;-75
2021/04/29 12:38:37;;;;;;;8.93;4.03;;;15.50;99.90;;;;;;20830975;28;20523;-76
2021/04/29 12:48:40;;;;;;;6.38;3.20;;;16.60;99.90;;;;;;20830758;28;20030;-75
2021/04/29 12:58:41;;;;;;;6.65;2.95;;;14.60;99.90;;;;;;20828916;28;20463;-75
2021/04/29 13:08:59;;;;;;;5.35;2.70;;;14.70;99.90;;;;;;20829152;28;20033;-76
2021/04/29 13:19:01;;;;;;;4.53;2.55;;;14.50;99.90;;;;;;20827215;28;20499;-75
2021/04/29 13:29:03;;;;;;;6.30;2.97;;;14.50;99.90;;;;;;20827665;28;20025;-76
2021/04/29 13:39:05;;;;;;;6.75;3.17;;;14.80;99.90;;;;;;20827168;28;20041;-75
2021/04/29 13:49:07;;;;;;;5.78;3.53;;;14.90;99.90;;;;;;20824255;28;20103;-75
2021/04/29 13:59:08;;;;;;;10.33;4.03;;;14.60;99.90;;;;;;20824702;28;20443;-75
2021/04/29 14:09:10;;;;;;;4.82;3.00;;;14.20;99.90;;;;;;20825171;28;20109;-76
2021/04/29 14:19:15;;;;;;;6.70;3.77;;;14.40;99.90;;;;;;20825001;28;20029;-76
2021/04/29 14:29:16;;;;;;;9.50;3.85;;;14.50;99.90;;;;;;20823168;28;20485;-76
2021/04/29 14:39:18;;;;;;;13.95;8.07;;;14.40;99.90;;;;;;20822891;28;20136;-75
2021/04/29 14:49:19;;;;;;;;;;;13.90;99.90;;;;;;20824245;28;20025;-76
2021/04/29 14:59:19;;;;;;;12.00;5.00;;;14.00;99.90;;;;;;20825543;28;19909;-76
2021/04/29 15:09:20;;;;;;;13.77;5.30;;;14.40;99.90;;;;;;20838919;28;20288;-76
2021/04/29 15:19:21;;;;;;;190.73;79.88;;;14.80;99.90;;;;;;20837913;28;20030;-76
2021/04/29 15:29:22;;;;;;;11.00;5.78;;;14.90;99.90;;;;;;20839326;28;20060;-78
2021/04/29 15:39:23;;;;;;;10.45;5.57;;;14.70;99.90;;;;;;20836359;28;20063;-76
2021/04/29 15:49:24;;;;;;;11.68;5.20;;;14.70;99.90;;;;;;20835565;28;20469;-76
2021/04/29 15:59:26;;;;;;;11.17;4.70;;;15.10;99.90;;;;;;20834738;28;20423;-76
2021/04/29 16:09:27;;;;;;;7.63;4.40;;;15.10;99.90;;;;;;20832407;28;20025;-75
2021/04/29 16:19:27;;;;;;;15.45;5.07;;;14.90;99.90;;;;;;20833340;28;20580;-76
2021/04/29 16:29:29;;;;;;;18.70;7.03;;;14.70;99.90;;;;;;20832321;28;20057;-75
2021/04/29 16:39:30;;;;;;;8.43;4.53;;;14.60;99.90;;;;;;20832205;28;20057;-75
2021/04/29 16:49:31;;;;;;;9.93;4.65;;;14.40;99.90;;;;;;20812770;28;20048;-75
2021/04/29 16:59:32;;;;;;;6.77;4.20;;;14.40;99.90;;;;;;20828361;28;20037;-76
2021/04/29 17:09:33;;;;;;;12.02;5.13;;;14.30;99.90;;;;;;20841530;28;20095;-76
2021/04/29 17:19:34;;;;;;;18.50;5.18;;;14.30;99.90;;;;;;20909429;28;20033;-76
2021/04/29 17:29:35;;;;;;;9.27;5.80;;;14.30;99.90;;;;;;20909790;28;20037;-75
2021/04/29 17:39:36;;;;;;;18.70;9.43;;;14.20;99.90;;;;;;20909279;28;20499;-76
2021/04/29 17:49:37;;;;;;;9.57;6.82;;;14.30;99.90;;;;;;20908180;28;20032;-74
2021/04/29 17:59:38;;;;;;;15.90;9.23;;;14.30;99.90;;;;;;20904409;28;20036;-75
2021/04/29 18:09:40;;;;;;;7.88;4.85;;;14.20;99.90;;;;;;20883640;28;20029;-76
2021/04/29 18:19:41;;;;;;;14.43;8.25;;;14.20;99.90;;;;;;20906995;28;20115;-75
2021/04/29 18:29:42;;;;;;;12.10;4.72;;;14.00;99.90;;;;;;20903473;28;20505;-76
2021/04/29 18:39:44;;;;;;;11.83;5.03;;;13.10;99.90;;;;;;20919177;28;20621;-75
2021/04/29 18:49:46;;;;;;;7.20;4.93;;;13.00;99.90;;;;;;20922582;28;20115;-75
2021/04/29 18:59:46;;;;;;;12.70;6.30;;;12.60;99.90;;;;;;20921908;28;20051;-76
2021/04/29 19:09:48;;;;;;;14.30;6.90;;;12.40;99.90;;;;;;20920731;28;20029;-75
2021/04/29 19:19:49;;;;;;;14.63;7.80;;;12.10;99.90;;;;;;20920011;28;20039;-76
2021/04/29 19:29:49;;;;;;;18.42;7.75;;;12.20;99.90;;;;;;20919410;28;20039;-76
2021/04/29 19:39:51;;;;;;;20.83;7.53;;;12.20;99.90;;;;;;20917510;28;20033;-75
2021/04/29 19:49:54;;;;;;;;;;;12.20;99.90;;;;;;20916778;28;20439;-75
2021/04/29 19:59:56;;;;;;;9.07;5.53;;;12.10;99.90;;;;;;20899224;28;19909;-75
2021/04/29 20:09:58;;;;;;;9.27;5.28;;;12.20;99.90;;;;;;20896599;28;20493;-74
2021/04/29 20:20:00;;;;;;;9.65;6.25;;;12.10;99.90;;;;;;20912732;28;20032;-76
2021/04/29 20:30:03;;;;;;;8.73;5.93;;;12.00;99.90;;;;;;20915225;28;20115;-76
2021/04/29 20:40:08;;;;;;;10.77;5.25;;;11.90;99.90;;;;;;20914508;28;20033;-75
2021/04/29 20:50:10;;;;;;;10.55;3.70;;;11.80;99.90;;;;;;20913324;28;20171;-76
2021/04/29 21:00:12;;;;;;;4.75;2.63;;;11.80;99.90;;;;;;20838610;28;20033;-75
2021/04/29 21:10:16;;;;;;;3.97;2.70;;;11.60;99.90;;;;;;20835331;28;20116;-76
2021/04/29 21:20:17;;;;;;;6.80;2.67;;;11.60;99.90;;;;;;20867495;28;20972;-75
2021/04/29 21:30:18;;;;;;;5.40;2.95;;;11.60;99.90;;;;;;20886567;28;20037;-75
2021/04/29 21:40:20;;;;;;;5.93;3.17;;;11.40;99.90;;;;;;20805416;28;20037;-74
2021/04/29 21:50:21;;;;;;;10.97;3.50;;;11.50;99.90;;;;;;20811793;28;20039;-74
2021/04/29 22:00:36;;;;;;;5.72;3.22;;;11.50;99.90;;;;;;20870323;28;20033;-75
2021/04/29 22:10:39;;;;;;;10.20;3.17;;;11.60;99.90;;;;;;20853707;28;20561;-74
2021/04/29 22:20:42;;;;;;;5.50;3.50;;;11.40;99.90;;;;;;20891427;28;20457;-74
2021/04/29 22:30:43;;;;;;;9.55;3.10;;;11.10;99.90;;;;;;20906193;28;20044;-75
2021/04/29 22:40:45;;;;;;;5.53;2.77;;;11.10;99.90;;;;;;20896113;28;20376;-75
2021/04/29 22:50:46;;;;;;;4.47;3.13;;;11.10;99.90;;;;;;20892606;28;20029;-75
2021/04/29 23:00:47;;;;;;;5.47;3.17;;;11.10;99.90;;;;;;20835960;28;20102;-75
2021/04/29 23:10:48;;;;;;;6.70;3.80;;;11.00;99.90;;;;;;20822213;28;20064;-75
2021/04/29 23:20:49;;;;;;;7.77;4.47;;;10.90;99.90;;;;;;20825870;28;20033;-75
2021/04/29 23:30:50;;;;;;;11.00;4.40;;;10.90;99.90;;;;;;20901653;28;20124;-75
2021/04/29 23:40:51;;;;;;;12.57;7.43;;;10.90;99.90;;;;;;20917207;28;20036;-75
2021/04/29 23:50:53;;;;;;;13.23;7.43;;;10.80;99.90;;;;;;20917174;28;20036;-75
